createdAt,value
2019-04-04T00:02:21.747Z,34.50
2019-04-04T00:04:57.704Z,34.39
2019-04-04T00:07:30.162Z,34.50
2019-04-04T00:10:05.545Z,34.52
2019-04-04T00:12:40.474Z,34.49
2019-04-04T00:15:14.929Z,34.54
2019-04-04T00:17:48.826Z,34.50
2019-04-04T00:20:22.406Z,34.58
2019-04-04T00:22:57.549Z,34.56
2019-04-04T00:25:31.037Z,34.53
2019-04-04T00:28:04.545Z,34.55
2019-04-04T00:30:38.227Z,34.48
2019-04-04T00:33:11.916Z,34.50
2019-04-04T00:35:45.484Z,34.44
2019-04-04T00:38:18.780Z,34.51
2019-04-04T00:40:52.248Z,34.52
2019-04-04T00:43:25.538Z,34.49
2019-04-04T00:46:00.465Z,34.50
2019-04-04T00:48:34.888Z,34.54
2019-04-04T00:51:08.612Z,34.52
2019-04-04T00:53:43.956Z,34.55
2019-04-04T00:56:18.796Z,34.61
2019-04-04T00:58:52.570Z,34.56
2019-04-04T01:01:27.010Z,34.55
2019-04-04T01:04:00.996Z,34.52
2019-04-04T01:06:34.596Z,34.54
2019-04-04T01:09:11.806Z,34.41
2019-04-04T01:11:44.565Z,34.52
2019-04-04T01:14:17.880Z,34.56
2019-04-04T01:16:51.297Z,34.57
2019-04-04T01:19:24.849Z,34.58
2019-04-04T01:21:58.474Z,34.53
2019-04-04T01:24:31.858Z,34.51
2019-04-04T01:27:06.337Z,34.53
2019-04-04T01:29:40.931Z,34.55
2019-04-04T01:32:16.825Z,34.48
2019-04-04T01:34:52.182Z,34.51
2019-04-04T01:37:27.150Z,34.55
2019-04-04T01:40:02.138Z,34.48
2019-04-04T01:42:38.744Z,34.47
2019-04-04T01:45:13.209Z,34.46
2019-04-04T01:47:48.088Z,34.41
2019-04-04T01:50:22.915Z,34.41
2019-04-04T01:52:58.809Z,34.45
2019-04-04T01:55:32.941Z,34.45
2019-04-04T01:58:07.934Z,34.48
2019-04-04T02:00:42.097Z,34.48
2019-04-04T02:03:15.933Z,34.54
2019-04-04T02:05:49.295Z,34.53
2019-04-04T02:08:22.692Z,34.55
2019-04-04T02:10:57.681Z,34.51
2019-04-04T02:13:31.035Z,34.54
2019-04-04T02:16:06.163Z,34.56
2019-04-04T02:18:39.767Z,34.56
2019-04-04T02:21:13.083Z,34.61
2019-04-04T02:23:47.502Z,34.57
2019-04-04T02:26:20.819Z,34.56
2019-04-04T02:28:54.177Z,34.56
2019-04-04T02:31:27.528Z,34.56
2019-04-04T02:34:05.358Z,34.54
2019-04-04T02:36:35.873Z,34.51
2019-04-04T02:39:12.230Z,34.49
2019-04-04T02:41:48.453Z,34.51
2019-04-04T02:44:20.778Z,34.54
2019-04-04T02:46:54.100Z,34.58
2019-04-04T02:49:29.548Z,34.56
2019-04-04T02:52:02.932Z,34.55
2019-04-04T02:54:36.295Z,34.55
2019-04-04T02:57:09.738Z,34.57
2019-04-04T02:59:43.107Z,34.52
2019-04-04T03:02:17.388Z,34.51
2019-04-04T03:04:50.789Z,34.52
2019-04-04T03:07:24.075Z,34.47
2019-04-04T03:09:57.419Z,34.50
2019-04-04T03:12:30.861Z,34.56
2019-04-04T03:15:08.877Z,34.53
2019-04-04T03:17:41.386Z,34.56
2019-04-04T03:20:17.298Z,34.52
2019-04-04T03:22:49.813Z,34.54
2019-04-04T03:25:23.165Z,34.52
2019-04-04T03:27:58.253Z,34.55
2019-04-04T03:30:31.297Z,34.52
2019-04-04T03:33:04.488Z,34.53
2019-04-04T03:35:37.971Z,34.67
2019-04-04T03:38:13.321Z,34.81
2019-04-04T03:40:46.534Z,34.89
2019-04-04T03:43:19.845Z,34.75
2019-04-04T03:45:53.181Z,34.62
2019-04-04T03:48:26.612Z,34.35
2019-04-04T03:51:03.592Z,34.43
2019-04-04T03:53:34.978Z,34.20
2019-04-04T03:56:08.290Z,33.91
2019-04-04T03:58:41.614Z,33.73
2019-04-04T04:01:14.967Z,33.62
2019-04-04T04:03:48.320Z,33.40
2019-04-04T04:06:21.662Z,33.29
2019-04-04T04:08:55.405Z,33.07
2019-04-04T04:11:28.860Z,32.93
2019-04-04T04:14:02.778Z,32.75
2019-04-04T04:16:36.291Z,32.62
2019-04-04T04:19:09.595Z,32.42
2019-04-04T04:21:43.864Z,32.23
2019-04-04T04:24:17.445Z,32.15
2019-04-04T04:26:50.846Z,31.95
2019-04-04T04:29:24.171Z,31.84
2019-04-04T04:31:57.485Z,31.64
2019-04-04T04:34:34.077Z,31.60
2019-04-04T04:37:05.912Z,31.47
2019-04-04T04:39:41.452Z,31.38
2019-04-04T04:42:14.251Z,30.96
2019-04-04T04:44:47.586Z,30.90
2019-04-04T04:47:23.835Z,30.72
2019-04-04T04:49:58.315Z,30.42
2019-04-04T04:52:31.628Z,30.38
2019-04-04T04:55:05.131Z,30.26
2019-04-04T04:57:39.495Z,30.05
2019-04-04T05:00:14.014Z,29.88
2019-04-04T05:02:51.052Z,29.91
2019-04-04T05:05:25.182Z,29.81
2019-04-04T05:07:58.500Z,29.53
2019-04-04T05:10:32.689Z,29.62
2019-04-04T05:13:05.908Z,29.73
2019-04-04T05:15:39.382Z,29.58
2019-04-04T05:18:14.106Z,29.55
2019-04-04T05:20:47.842Z,29.50
2019-04-04T05:23:21.151Z,29.41
2019-04-04T05:25:54.574Z,29.49
2019-04-04T05:28:27.912Z,29.53
2019-04-04T05:31:01.261Z,29.56
2019-04-04T05:33:34.704Z,29.51
2019-04-04T05:36:08.093Z,29.65
2019-04-04T05:38:42.904Z,29.70
2019-04-04T05:41:16.775Z,29.82
2019-04-04T05:43:51.539Z,29.87
2019-04-04T05:46:24.857Z,29.84
2019-04-04T05:49:00.710Z,29.95
2019-04-04T05:51:36.054Z,29.90
2019-04-04T05:54:08.633Z,30.00
2019-04-04T05:56:44.395Z,30.05
2019-04-04T05:59:17.704Z,30.04
2019-04-04T06:01:51.235Z,29.87
2019-04-04T06:04:24.745Z,29.85
2019-04-04T06:06:58.119Z,29.82
2019-04-04T06:09:31.804Z,29.73
2019-04-04T06:12:05.376Z,30.12
2019-04-04T06:14:39.013Z,29.96
2019-04-04T06:17:12.517Z,29.86
2019-04-04T06:19:47.112Z,29.69
2019-04-04T06:22:21.138Z,29.66
2019-04-04T06:24:58.994Z,29.94
2019-04-04T06:27:30.937Z,29.86
2019-04-04T06:30:05.413Z,29.87
2019-04-04T06:32:39.194Z,30.02
2019-04-04T06:35:13.333Z,30.02
2019-04-04T06:37:49.189Z,30.65
2019-04-04T06:40:24.015Z,30.75
2019-04-04T06:42:57.842Z,30.93
2019-04-04T06:45:32.128Z,30.64
2019-04-04T06:48:05.552Z,30.70
2019-04-04T06:50:42.742Z,30.56
2019-04-04T06:53:14.178Z,30.50
2019-04-04T06:55:47.505Z,30.56
2019-04-04T06:58:20.973Z,30.80
2019-04-04T07:00:54.293Z,30.76
2019-04-04T07:03:28.080Z,30.76
2019-04-04T07:06:01.577Z,30.84
2019-04-04T07:08:34.957Z,30.44
2019-04-04T07:11:21.232Z,30.29
2019-04-04T07:13:43.673Z,30.62
2019-04-04T07:16:17.140Z,30.53
2019-04-04T07:18:50.606Z,30.67
2019-04-04T07:21:24.001Z,30.58
2019-04-04T07:23:59.363Z,30.71
2019-04-04T07:26:32.500Z,30.79
2019-04-04T07:29:06.447Z,30.42
2019-04-04T07:31:39.809Z,30.60
2019-04-04T07:34:13.730Z,30.56
2019-04-04T07:36:49.177Z,30.34
2019-04-04T07:39:22.935Z,30.26
2019-04-04T07:41:56.246Z,29.94
2019-04-04T07:44:30.108Z,29.59
2019-04-04T07:47:03.552Z,29.50
2019-04-04T07:49:39.989Z,29.45
2019-04-04T07:52:12.130Z,29.59
2019-04-04T07:54:45.768Z,29.56
2019-04-04T07:57:19.715Z,29.53
2019-04-04T07:59:53.699Z,29.60
2019-04-04T08:02:27.095Z,29.63
2019-04-04T08:05:00.517Z,29.58
2019-04-04T08:07:33.955Z,29.58
2019-04-04T08:10:19.556Z,29.58
2019-04-04T08:12:42.490Z,29.58
2019-04-04T08:15:16.970Z,29.56
2019-04-04T08:17:50.424Z,29.64
2019-04-04T08:20:23.827Z,29.64
2019-04-04T08:22:57.150Z,29.47
2019-04-04T08:25:30.449Z,29.35
2019-04-04T08:28:03.790Z,29.51
2019-04-04T08:30:38.725Z,29.44
2019-04-04T08:33:12.097Z,29.26
2019-04-04T08:35:45.555Z,28.83
2019-04-04T08:38:19.168Z,28.81
2019-04-04T08:40:52.574Z,28.93
2019-04-04T08:43:25.918Z,29.02
2019-04-04T08:45:59.349Z,28.93
2019-04-04T08:48:34.386Z,29.02
2019-04-04T08:51:07.828Z,29.11
2019-04-04T08:53:41.149Z,29.24
2019-04-04T08:56:14.333Z,29.13
2019-04-04T08:58:48.092Z,29.22
2019-04-04T09:01:21.442Z,29.10
2019-04-04T09:03:54.740Z,29.25
2019-04-04T09:06:28.404Z,29.30
2019-04-04T09:09:01.701Z,29.19
2019-04-04T09:11:36.224Z,29.26
2019-04-04T09:14:09.547Z,29.37
2019-04-04T09:16:42.962Z,29.38
2019-04-04T09:19:16.309Z,29.31
2019-04-04T09:21:50.218Z,29.30
2019-04-04T09:24:23.709Z,29.67
2019-04-04T09:26:57.058Z,29.53
2019-04-04T09:29:30.439Z,29.58
2019-04-04T09:32:03.770Z,29.67
2019-04-04T09:34:37.061Z,29.93
2019-04-04T09:37:10.413Z,30.21
2019-04-04T09:39:43.740Z,29.90
2019-04-04T09:42:16.892Z,29.28
2019-04-04T09:44:50.505Z,28.52
2019-04-04T09:47:23.841Z,28.96
2019-04-04T09:49:57.237Z,29.31
2019-04-04T09:52:30.637Z,29.29
2019-04-04T09:55:06.248Z,29.20
2019-04-04T09:57:39.549Z,29.19
2019-04-04T10:00:13.887Z,29.15
2019-04-04T10:02:48.156Z,29.14
2019-04-04T10:05:21.476Z,29.16
2019-04-04T10:07:54.865Z,29.06
2019-04-04T10:10:28.466Z,29.00
2019-04-04T10:13:01.702Z,28.91
2019-04-04T10:15:35.078Z,28.85
2019-04-04T10:18:08.485Z,28.79
2019-04-04T10:20:41.864Z,28.77
2019-04-04T10:23:15.484Z,28.72
2019-04-04T10:25:48.793Z,28.63
2019-04-04T10:28:23.467Z,28.60
2019-04-04T10:30:57.011Z,28.57
2019-04-04T10:33:30.348Z,28.50
2019-04-04T10:36:03.739Z,28.41
2019-04-04T10:38:37.166Z,28.35
2019-04-04T10:41:10.501Z,28.25
2019-04-04T10:43:43.900Z,28.22
2019-04-04T10:46:17.350Z,28.19
2019-04-04T10:48:50.981Z,28.12
2019-04-04T10:51:24.355Z,27.97
2019-04-04T10:53:58.032Z,27.99
2019-04-04T10:56:31.370Z,27.77
2019-04-04T10:59:04.781Z,27.71
2019-04-04T11:01:38.168Z,27.70
2019-04-04T11:04:14.283Z,27.69
2019-04-04T11:06:47.607Z,27.62
2019-04-04T11:09:20.927Z,27.58
2019-04-04T11:11:54.320Z,27.77
2019-04-04T11:14:27.713Z,27.69
2019-04-04T11:17:01.282Z,27.76
2019-04-04T11:19:34.492Z,27.83
2019-04-04T11:22:08.175Z,27.76
2019-04-04T11:24:41.688Z,27.91
2019-04-04T11:27:17.471Z,27.86
2019-04-04T11:29:50.445Z,27.94
2019-04-04T11:32:23.974Z,27.94
2019-04-04T11:34:57.285Z,28.06
2019-04-04T11:37:30.917Z,28.15
2019-04-04T11:40:05.458Z,28.13
2019-04-04T11:42:38.848Z,28.17
2019-04-04T11:45:12.153Z,28.21
2019-04-04T11:47:45.751Z,28.19
2019-04-04T11:50:19.074Z,28.26
2019-04-04T11:52:52.579Z,28.29
2019-04-04T11:55:26.057Z,28.41
2019-04-04T11:57:59.396Z,28.47
2019-04-04T12:00:32.821Z,28.42
2019-04-04T12:03:06.037Z,28.38
2019-04-04T12:05:39.510Z,28.41
2019-04-04T12:08:13.014Z,28.41
2019-04-04T12:10:46.325Z,28.53
2019-04-04T12:13:19.692Z,28.54
2019-04-04T12:15:53.295Z,28.71
2019-04-04T12:18:26.636Z,28.51
2019-04-04T12:20:59.928Z,28.56
2019-04-04T12:23:33.468Z,28.66
2019-04-04T12:26:06.777Z,28.88
2019-04-04T12:28:40.180Z,28.58
2019-04-04T12:31:13.520Z,28.51
2019-04-04T12:33:47.072Z,28.55
2019-04-04T12:36:24.913Z,28.70
2019-04-04T12:38:55.549Z,28.61
2019-04-04T12:41:28.872Z,28.35
2019-04-04T12:44:02.194Z,28.47
2019-04-04T12:46:35.795Z,28.99
2019-04-04T12:49:09.144Z,28.77
2019-04-04T12:51:42.467Z,28.95
2019-04-04T12:54:15.788Z,29.07
2019-04-04T12:56:49.357Z,29.46
2019-04-04T12:59:22.885Z,29.66
2019-04-04T13:01:56.438Z,30.36
2019-04-04T13:04:31.766Z,29.57
2019-04-04T13:07:05.174Z,29.64
2019-04-04T13:09:38.563Z,29.89
2019-04-04T13:12:11.970Z,29.73
2019-04-04T13:14:45.540Z,29.87
2019-04-04T13:17:18.910Z,29.86
2019-04-04T13:19:52.250Z,29.63
2019-04-04T13:22:25.678Z,29.50
2019-04-04T13:24:59.140Z,29.62
2019-04-04T13:27:33.022Z,29.67
2019-04-04T13:30:10.208Z,29.45
2019-04-04T13:32:43.356Z,29.41
2019-04-04T13:35:16.682Z,29.36
2019-04-04T13:37:50.101Z,29.21
2019-04-04T13:40:23.803Z,29.25
2019-04-04T13:42:57.303Z,29.24
2019-04-04T13:45:30.802Z,29.56
2019-04-04T13:48:04.366Z,29.50
2019-04-04T13:50:37.652Z,29.37
2019-04-04T13:53:12.185Z,29.28
2019-04-04T13:55:46.150Z,29.55
2019-04-04T13:58:22.171Z,29.28
2019-04-04T14:00:55.400Z,29.35
2019-04-04T14:03:28.750Z,28.98
2019-04-04T14:06:02.273Z,29.06
2019-04-04T14:08:39.217Z,28.97
2019-04-04T14:11:11.410Z,28.85
2019-04-04T14:13:48.766Z,28.52
2019-04-04T14:16:20.135Z,28.79
2019-04-04T14:18:53.591Z,28.40
2019-04-04T14:21:26.933Z,29.16
2019-04-04T14:24:12.395Z,29.01
2019-04-04T14:26:35.913Z,28.95
2019-04-04T14:29:09.248Z,29.10
2019-04-04T14:31:42.559Z,28.94
2019-04-04T14:34:15.900Z,28.83
2019-04-04T14:36:49.214Z,28.90
2019-04-04T14:39:22.376Z,29.15
2019-04-04T14:41:57.290Z,29.02
2019-04-04T14:44:30.773Z,29.24
2019-04-04T14:47:04.439Z,29.13
2019-04-04T14:49:38.883Z,29.35
2019-04-04T14:52:12.407Z,29.63
2019-04-04T14:54:46.063Z,29.74
2019-04-04T14:57:20.070Z,29.76
2019-04-04T14:59:54.256Z,29.39
2019-04-04T15:02:28.525Z,29.21
2019-04-04T15:05:03.096Z,29.38
2019-04-04T15:07:37.829Z,29.53
2019-04-04T15:10:11.441Z,29.60
2019-04-04T15:12:45.067Z,29.49
2019-04-04T15:15:19.315Z,29.57
2019-04-04T15:17:55.240Z,29.30
2019-04-04T15:20:29.070Z,29.26
2019-04-04T15:23:02.512Z,29.40
2019-04-04T15:25:36.005Z,29.54
2019-04-04T15:28:09.309Z,29.56
2019-04-04T15:30:42.797Z,29.67
2019-04-04T15:33:17.747Z,29.76
2019-04-04T15:35:51.182Z,29.79
2019-04-04T15:38:24.955Z,30.15
2019-04-04T15:40:58.652Z,30.21
2019-04-04T15:43:33.661Z,30.28
2019-04-04T15:46:07.313Z,30.18
2019-04-04T15:48:41.270Z,30.05
2019-04-04T15:51:15.591Z,29.89
2019-04-04T15:53:48.991Z,29.68
2019-04-04T15:56:22.717Z,29.67
2019-04-04T15:58:56.082Z,29.51
2019-04-04T16:01:30.168Z,29.57
2019-04-04T16:04:04.210Z,29.42
2019-04-04T16:06:38.364Z,29.36
2019-04-04T16:09:12.190Z,29.18
2019-04-04T16:11:49.910Z,29.06
2019-04-04T16:14:20.925Z,28.79
2019-04-04T16:16:54.439Z,28.67
2019-04-04T16:19:27.897Z,28.50
2019-04-04T16:22:01.221Z,28.52
2019-04-04T16:24:34.737Z,28.53
2019-04-04T16:27:09.758Z,28.39
2019-04-04T16:29:44.241Z,28.42
2019-04-04T16:32:17.798Z,28.30
2019-04-04T16:34:52.533Z,28.63
2019-04-04T16:37:26.488Z,28.44
2019-04-04T16:40:08.978Z,28.28
2019-04-04T16:42:35.123Z,28.43
2019-04-04T16:45:08.627Z,28.60
2019-04-04T16:47:42.193Z,28.80
2019-04-04T16:50:15.606Z,28.53
2019-04-04T16:52:48.982Z,28.67
2019-04-04T16:55:22.293Z,28.81
2019-04-04T16:57:55.902Z,28.75
2019-04-04T17:00:29.271Z,29.00
2019-04-04T17:03:02.696Z,29.04
2019-04-04T17:05:36.269Z,29.13
2019-04-04T17:08:09.687Z,29.29
2019-04-04T17:10:43.733Z,29.47
2019-04-04T17:13:17.102Z,29.47
2019-04-04T17:15:50.561Z,29.28
2019-04-04T17:18:23.910Z,29.30
2019-04-04T17:20:57.375Z,29.28
2019-04-04T17:23:30.782Z,29.51
2019-04-04T17:26:04.285Z,29.51
2019-04-04T17:28:37.664Z,29.52
2019-04-04T17:31:11.280Z,29.48
2019-04-04T17:33:44.721Z,29.57
2019-04-04T17:36:20.610Z,29.66
2019-04-04T17:38:55.077Z,29.58
2019-04-04T17:41:28.765Z,29.80
2019-04-04T17:44:02.220Z,29.72
2019-04-04T17:46:36.747Z,29.67
2019-04-04T17:49:10.582Z,30.07
2019-04-04T17:51:44.343Z,30.00
2019-04-04T17:54:17.854Z,30.17
2019-04-04T17:56:51.372Z,30.07
2019-04-04T17:59:24.819Z,29.98
2019-04-04T18:01:58.277Z,29.64
2019-04-04T18:04:34.653Z,29.73
2019-04-04T18:07:08.035Z,29.71
2019-04-04T18:09:41.680Z,29.70
2019-04-04T18:12:16.896Z,29.72
2019-04-04T18:14:51.500Z,29.56
2019-04-04T18:17:24.970Z,29.47
2019-04-04T18:19:58.401Z,29.55
2019-04-04T18:22:31.753Z,29.52
2019-04-04T18:25:07.348Z,29.51
2019-04-04T18:27:42.753Z,29.63
2019-04-04T18:30:16.695Z,29.50
2019-04-04T18:32:50.142Z,29.60
2019-04-04T18:35:23.317Z,29.67
2019-04-04T18:37:58.631Z,29.66
2019-04-04T18:40:32.329Z,29.64
2019-04-04T18:43:07.311Z,29.53
2019-04-04T18:45:41.427Z,29.62
2019-04-04T18:48:15.069Z,29.66
2019-04-04T18:50:48.425Z,29.60
2019-04-04T18:53:21.764Z,29.53
2019-04-04T18:55:55.227Z,29.59
2019-04-04T18:58:29.017Z,29.64
2019-04-04T19:01:02.397Z,29.75
2019-04-04T19:03:35.706Z,29.64
2019-04-04T19:06:09.471Z,29.58
2019-04-04T19:08:42.864Z,29.71
2019-04-04T19:11:16.413Z,29.75
2019-04-04T19:13:51.109Z,29.82
2019-04-04T19:16:25.080Z,29.85
2019-04-04T19:19:02.058Z,29.70
2019-04-04T19:21:36.165Z,29.92
2019-04-04T19:24:09.655Z,29.96
2019-04-04T19:26:43.817Z,30.09
2019-04-04T19:29:17.210Z,30.06
2019-04-04T19:31:50.561Z,30.07
2019-04-04T19:34:23.895Z,30.16
2019-04-04T19:36:57.589Z,30.24
2019-04-04T19:39:30.955Z,30.44
2019-04-04T19:42:05.134Z,30.43
2019-04-04T19:44:38.587Z,30.53
2019-04-04T19:47:11.913Z,30.77
2019-04-04T19:49:46.942Z,30.72
2019-04-04T19:52:20.456Z,30.48
2019-04-04T19:54:54.850Z,30.81
2019-04-04T19:57:29.285Z,30.86
2019-04-04T20:00:07.417Z,30.89
2019-04-04T20:02:43.802Z,30.95
2019-04-04T20:05:16.125Z,30.87
2019-04-04T20:07:49.456Z,30.89
2019-04-04T20:10:24.046Z,31.02
2019-04-04T20:12:57.556Z,30.97
2019-04-04T20:15:30.861Z,31.02
2019-04-04T20:18:04.243Z,31.01
2019-04-04T20:20:37.651Z,30.99
2019-04-04T20:23:11.046Z,31.06
2019-04-04T20:25:44.395Z,31.17
2019-04-04T20:28:17.824Z,31.22
2019-04-04T20:30:51.331Z,31.28
2019-04-04T20:33:24.752Z,31.37
2019-04-04T20:35:58.199Z,31.39
2019-04-04T20:38:31.658Z,31.38
2019-04-04T20:41:05.005Z,31.64
2019-04-04T20:43:43.452Z,31.55
2019-04-04T20:46:13.705Z,31.57
2019-04-04T20:48:49.093Z,31.61
2019-04-04T20:51:22.513Z,31.99
2019-04-04T20:53:56.183Z,32.01
2019-04-04T20:56:29.574Z,32.34
2019-04-04T20:59:02.927Z,32.45
2019-04-04T21:01:36.292Z,32.30
2019-04-04T21:04:09.695Z,32.40
2019-04-04T21:06:42.985Z,32.68
2019-04-04T21:09:16.517Z,32.65
2019-04-04T21:11:50.594Z,32.61
2019-04-04T21:14:24.602Z,32.51
2019-04-04T21:16:58.025Z,32.33
2019-04-04T21:19:31.634Z,32.33
2019-04-04T21:22:04.966Z,32.38
2019-04-04T21:24:38.321Z,32.41
2019-04-04T21:27:11.765Z,32.56
2019-04-04T21:29:45.105Z,32.32
2019-04-04T21:32:19.152Z,32.41
2019-04-04T21:34:53.647Z,32.29
2019-04-04T21:37:28.658Z,32.37
2019-04-04T21:40:02.045Z,32.36
2019-04-04T21:42:35.648Z,32.39
2019-04-04T21:45:09.027Z,32.43
2019-04-04T21:47:42.739Z,32.39
2019-04-04T21:50:16.157Z,32.50
2019-04-04T21:52:49.639Z,32.42
2019-04-04T21:55:23.069Z,32.34
2019-04-04T21:57:56.636Z,32.32
2019-04-04T22:00:30.346Z,32.34
2019-04-04T22:03:05.357Z,32.36
2019-04-04T22:05:38.975Z,32.41
2019-04-04T22:08:12.429Z,32.42
2019-04-04T22:10:45.899Z,32.41
2019-04-04T22:13:19.591Z,32.35
2019-04-04T22:15:52.922Z,32.36
2019-04-04T22:18:26.286Z,32.38
2019-04-04T22:20:59.694Z,32.40
2019-04-04T22:23:33.202Z,32.42
2019-04-04T22:26:06.805Z,32.48
2019-04-04T22:28:40.174Z,32.47
2019-04-04T22:31:13.606Z,32.45
2019-04-04T22:33:48.022Z,32.49
2019-04-04T22:36:21.589Z,32.48
2019-04-04T22:38:54.964Z,32.55
2019-04-04T22:41:28.289Z,32.58
2019-04-04T22:44:03.691Z,32.51
2019-04-04T22:46:37.407Z,32.53
2019-04-04T22:49:11.080Z,32.56
2019-04-04T22:51:44.408Z,32.56
2019-04-04T22:54:17.771Z,32.50
2019-04-04T22:56:51.169Z,32.37
2019-04-04T22:59:24.528Z,32.47
2019-04-04T23:01:57.866Z,32.56
2019-04-04T23:04:31.753Z,32.56
2019-04-04T23:07:05.341Z,32.45
2019-04-04T23:09:38.803Z,32.56
2019-04-04T23:12:12.302Z,32.63
2019-04-04T23:14:48.455Z,32.64
2019-04-04T23:17:20.884Z,32.67
2019-04-04T23:19:54.225Z,32.53
2019-04-04T23:22:27.595Z,32.64
2019-04-04T23:25:00.940Z,32.66
2019-04-04T23:27:34.279Z,32.65
2019-04-04T23:30:07.832Z,32.60
2019-04-04T23:32:41.269Z,32.63
2019-04-04T23:35:16.609Z,32.70
2019-04-04T23:37:49.846Z,32.74
2019-04-04T23:40:23.178Z,32.75
2019-04-04T23:42:56.488Z,32.77
2019-04-04T23:45:29.861Z,32.78
2019-04-04T23:48:03.241Z,32.79
2019-04-04T23:50:36.620Z,32.78
2019-04-04T23:53:09.933Z,32.82
2019-04-04T23:55:43.283Z,32.82
2019-04-04T23:58:16.631Z,32.85
